DAL173 KSLC-RKSI
Flight info
| Callsign | DAL173 |
|---|---|
| Flight time | N/A |
| Altitude | 36000 |
| Route | CGULL1 TWF DCT BOI DCT BKE DCT PDT DCT TOU DCT SEFIX DCT TAMRU DCT ORNAI DCT 53N140W 56N150W 57N160W DCT SPY DCT PINTT DCT OBOYD DCT NATES R220 NODAN R217 GTC Y142 SAMON Y14 SUGNO Y16 SAPRA G585 GUKDO GUKDO3C |
| Aircraft | A359/H-SDE2E3GHIJ3J4J5LM1ORWXY/LB1D1 |
Departure
| Time | 2026-04-30 19:03 |
|---|---|
| Airport | Salt Lake City International Airport (KSLC) |
Arrival
| Time | N/A |
|---|---|
| Airport | Incheon International Airport (RKSI) |
| Time | Latitude | Longitude | Altitude | Speed | Heading |
|---|---|---|---|---|---|
| 2026-04-30 18:57 | 40.80234 | -111.98560 | 4240 ft | 0 kts | 355° |
| 2026-04-30 18:58 | 40.80212 | -111.98579 | 4240 ft | 6 kts | 179° |
| 2026-04-30 18:58 | 40.80168 | -111.98489 | 4240 ft | 23 kts | 95° |
| 2026-04-30 18:58 | 40.80189 | -111.98186 | 4240 ft | 36 kts | 84° |
| 2026-04-30 18:59 | 40.80045 | -111.97921 | 4240 ft | 8 kts | 27° |
| 2026-04-30 19:00 | 40.80713 | -111.97881 | 4240 ft | 35 kts | 50° |
| 2026-04-30 19:00 | 40.80674 | -111.97720 | 4240 ft | 16 kts | 215° |
| 2026-04-30 19:00 | 40.80603 | -111.97846 | 4240 ft | 11 kts | 226° |
| 2026-04-30 19:01 | 40.80702 | -111.97877 | 4240 ft | 11 kts | 17° |
| 2026-04-30 19:01 | 40.80736 | -111.97827 | 4240 ft | 6 kts | 70° |
| 2026-04-30 19:02 | 40.80739 | -111.97761 | 4240 ft | 0 kts | 87° |
| 2026-04-30 19:02 | 40.80342 | -111.97642 | 4240 ft | 87 kts | 176° |
| 2026-04-30 19:03 | 40.78391 | -111.97418 | 4334 ft | 177 kts | 175° |
| 2026-04-30 19:03 | 40.75910 | -111.97346 | 5140 ft | 192 kts | 187° |
| 2026-04-30 19:04 | 40.73130 | -111.98190 | 5922 ft | 218 kts | 200° |
| 2026-04-30 19:04 | 40.70863 | -112.00916 | 6403 ft | 241 kts | 257° |
| 2026-04-30 19:05 | 40.72025 | -112.04930 | 6901 ft | 263 kts | 329° |
| 2026-04-30 19:05 | 40.75717 | -112.05612 | 7531 ft | 283 kts | 356° |
| 2026-04-30 19:06 | 40.79536 | -112.07018 | 8554 ft | 289 kts | 332° |
| 2026-04-30 19:06 | 40.81242 | -112.08412 | 9092 ft | 291 kts | 324° |
| 2026-04-30 19:06 | 40.84349 | -112.11832 | 10137 ft | 296 kts | 317° |
| 2026-04-30 19:07 | 40.87399 | -112.15758 | 10717 ft | 318 kts | 315° |
| 2026-04-30 19:07 | 40.88971 | -112.17869 | 10961 ft | 330 kts | 314° |